sensor_id;sensor_type;location;lat;lon;timestamp;P1;durP1;ratioP1;P2;durP2;ratioP2
10699;SDS011;5401;41.986;21.452;2023-02-01T00:00:02;3.67;;;2.13;;
10699;SDS011;5401;41.986;21.452;2023-02-01T00:02:32;7.27;;;2.33;;
10699;SDS011;5401;41.986;21.452;2023-02-01T00:05:01;7.23;;;5.10;;
10699;SDS011;5401;41.986;21.452;2023-02-01T00:07:29;5.00;;;2.40;;
10699;SDS011;5401;41.986;21.452;2023-02-01T00:09:56;2.87;;;2.00;;
10699;SDS011;5401;41.986;21.452;2023-02-01T00:12:26;8.47;;;2.33;;
10699;SDS011;5401;41.986;21.452;2023-02-01T00:14:53;6.27;;;2.57;;
10699;SDS011;5401;41.986;21.452;2023-02-01T00:17:21;5.63;;;1.90;;
10699;SDS011;5401;41.986;21.452;2023-02-01T00:19:50;2.50;;;2.00;;
10699;SDS011;5401;41.986;21.452;2023-02-01T00:22:17;3.17;;;2.17;;
10699;SDS011;5401;41.986;21.452;2023-02-01T00:24:45;3.97;;;2.23;;
10699;SDS011;5401;41.986;21.452;2023-02-01T00:27:12;3.90;;;2.00;;
10699;SDS011;5401;41.986;21.452;2023-02-01T00:29:43;2.03;;;1.80;;
10699;SDS011;5401;41.986;21.452;2023-02-01T00:32:11;2.40;;;2.10;;
10699;SDS011;5401;41.986;21.452;2023-02-01T00:34:39;2.57;;;1.70;;
10699;SDS011;5401;41.986;21.452;2023-02-01T00:37:08;3.23;;;2.03;;
10699;SDS011;5401;41.986;21.452;2023-02-01T00:39:35;3.87;;;1.73;;
10699;SDS011;5401;41.986;21.452;2023-02-01T00:42:03;4.03;;;1.97;;
10699;SDS011;5401;41.986;21.452;2023-02-01T00:44:30;5.97;;;2.97;;
10699;SDS011;5401;41.986;21.452;2023-02-01T00:47:00;4.67;;;2.13;;
10699;SDS011;5401;41.986;21.452;2023-02-01T00:49:27;2.90;;;1.77;;
10699;SDS011;5401;41.986;21.452;2023-02-01T00:51:55;2.27;;;1.60;;
10699;SDS011;5401;41.986;21.452;2023-02-01T00:54:24;4.07;;;1.70;;
10699;SDS011;5401;41.986;21.452;2023-02-01T00:56:51;3.77;;;1.70;;
10699;SDS011;5401;41.986;21.452;2023-02-01T00:59:19;2.67;;;1.73;;
10699;SDS011;5401;41.986;21.452;2023-02-01T01:01:46;4.53;;;2.00;;
10699;SDS011;5401;41.986;21.452;2023-02-01T01:04:14;3.13;;;1.97;;
10699;SDS011;5401;41.986;21.452;2023-02-01T01:06:42;2.00;;;1.80;;
10699;SDS011;5401;41.986;21.452;2023-02-01T01:09:09;3.27;;;2.00;;
10699;SDS011;5401;41.986;21.452;2023-02-01T01:11:38;3.30;;;1.60;;
10699;SDS011;5401;41.986;21.452;2023-02-01T01:14:06;3.67;;;1.80;;
10699;SDS011;5401;41.986;21.452;2023-02-01T01:16:34;2.47;;;1.80;;
10699;SDS011;5401;41.986;21.452;2023-02-01T01:19:02;2.00;;;1.40;;
10699;SDS011;5401;41.986;21.452;2023-02-01T01:21:31;2.27;;;1.77;;
10699;SDS011;5401;41.986;21.452;2023-02-01T01:23:58;4.17;;;2.20;;
10699;SDS011;5401;41.986;21.452;2023-02-01T01:26:27;4.60;;;2.80;;
10699;SDS011;5401;41.986;21.452;2023-02-01T01:28:59;3.30;;;2.67;;
10699;SDS011;5401;41.986;21.452;2023-02-01T01:31:27;4.23;;;3.00;;
10699;SDS011;5401;41.986;21.452;2023-02-01T01:33:56;4.90;;;3.03;;
10699;SDS011;5401;41.986;21.452;2023-02-01T01:36:26;5.20;;;3.03;;
10699;SDS011;5401;41.986;21.452;2023-02-01T01:38:55;5.13;;;3.00;;
10699;SDS011;5401;41.986;21.452;2023-02-01T01:41:23;4.80;;;2.60;;
10699;SDS011;5401;41.986;21.452;2023-02-01T01:43:53;2.57;;;2.20;;
10699;SDS011;5401;41.986;21.452;2023-02-01T01:46:27;3.70;;;1.97;;
10699;SDS011;5401;41.986;21.452;2023-02-01T01:48:58;1.90;;;1.63;;
10699;SDS011;5401;41.986;21.452;2023-02-01T01:51:29;2.20;;;1.80;;
10699;SDS011;5401;41.986;21.452;2023-02-01T01:54:00;2.10;;;1.70;;
10699;SDS011;5401;41.986;21.452;2023-02-01T01:56:30;3.37;;;1.70;;
10699;SDS011;5401;41.986;21.452;2023-02-01T01:59:01;1.67;;;1.40;;
10699;SDS011;5401;41.986;21.452;2023-02-01T02:01:31;2.20;;;1.50;;
10699;SDS011;5401;41.986;21.452;2023-02-01T02:03:59;1.47;;;1.37;;
10699;SDS011;5401;41.986;21.452;2023-02-01T02:06:30;4.27;;;1.83;;
10699;SDS011;5401;41.986;21.452;2023-02-01T02:09:06;2.47;;;1.60;;
10699;SDS011;5401;41.986;21.452;2023-02-01T02:11:33;2.70;;;1.47;;
10699;SDS011;5401;41.986;21.452;2023-02-01T02:14:01;3.63;;;1.70;;
10699;SDS011;5401;41.986;21.452;2023-02-01T02:19:48;1.50;;;1.40;;
10699;SDS011;5401;41.986;21.452;2023-02-01T02:31:40;1.87;;;1.40;;
10699;SDS011;5401;41.986;21.452;2023-02-01T02:34:24;2.20;;;1.40;;
10699;SDS011;5401;41.986;21.452;2023-02-01T02:37:01;2.07;;;1.60;;
10699;SDS011;5401;41.986;21.452;2023-02-01T02:39:36;3.10;;;1.37;;
10699;SDS011;5401;41.986;21.452;2023-02-01T02:42:17;3.93;;;1.60;;
10699;SDS011;5401;41.986;21.452;2023-02-01T02:45:21;2.17;;;1.40;;
10699;SDS011;5401;41.986;21.452;2023-02-01T02:48:16;2.27;;;1.47;;
10699;SDS011;5401;41.986;21.452;2023-02-01T02:50:49;3.07;;;1.47;;
10699;SDS011;5401;41.986;21.452;2023-02-01T02:53:45;2.60;;;1.37;;
10699;SDS011;5401;41.986;21.452;2023-02-01T02:56:46;2.77;;;1.33;;
10699;SDS011;5401;41.986;21.452;2023-02-01T02:59:31;2.07;;;1.40;;
10699;SDS011;5401;41.986;21.452;2023-02-01T03:02:18;3.37;;;1.70;;
10699;SDS011;5401;41.986;21.452;2023-02-01T03:05:05;2.83;;;1.60;;
10699;SDS011;5401;41.986;21.452;2023-02-01T03:07:49;2.00;;;1.23;;
10699;SDS011;5401;41.986;21.452;2023-02-01T03:10:24;3.17;;;1.47;;
10699;SDS011;5401;41.986;21.452;2023-02-01T03:13:00;4.03;;;2.60;;
10699;SDS011;5401;41.986;21.452;2023-02-01T03:15:32;2.87;;;2.00;;
10699;SDS011;5401;41.986;21.452;2023-02-01T03:18:04;3.57;;;1.83;;
10699;SDS011;5401;41.986;21.452;2023-02-01T03:20:37;2.00;;;1.87;;
10699;SDS011;5401;41.986;21.452;2023-02-01T03:23:13;2.30;;;1.53;;
10699;SDS011;5401;41.986;21.452;2023-02-01T03:25:43;2.60;;;2.17;;
10699;SDS011;5401;41.986;21.452;2023-02-01T03:28:14;3.10;;;1.77;;
10699;SDS011;5401;41.986;21.452;2023-02-01T03:30:47;2.63;;;1.70;;
10699;SDS011;5401;41.986;21.452;2023-02-01T03:33:17;1.53;;;1.37;;
10699;SDS011;5401;41.986;21.452;2023-02-01T03:35:50;2.60;;;1.50;;
10699;SDS011;5401;41.986;21.452;2023-02-01T03:38:25;5.90;;;1.70;;
10699;SDS011;5401;41.986;21.452;2023-02-01T03:40:58;2.67;;;1.63;;
10699;SDS011;5401;41.986;21.452;2023-02-01T03:43:37;1.30;;;1.20;;
10699;SDS011;5401;41.986;21.452;2023-02-01T03:46:16;3.83;;;1.80;;
10699;SDS011;5401;41.986;21.452;2023-02-01T03:48:49;2.87;;;2.10;;
10699;SDS011;5401;41.986;21.452;2023-02-01T03:51:19;4.27;;;2.03;;
10699;SDS011;5401;41.986;21.452;2023-02-01T03:53:50;2.70;;;1.87;;
10699;SDS011;5401;41.986;21.452;2023-02-01T03:56:20;5.37;;;2.10;;
10699;SDS011;5401;41.986;21.452;2023-02-01T03:58:49;3.67;;;1.90;;
10699;SDS011;5401;41.986;21.452;2023-02-01T04:01:25;5.10;;;2.03;;
10699;SDS011;5401;41.986;21.452;2023-02-01T04:03:54;2.93;;;1.90;;
10699;SDS011;5401;41.986;21.452;2023-02-01T04:06:22;2.20;;;1.70;;
10699;SDS011;5401;41.986;21.452;2023-02-01T04:08:51;3.53;;;2.03;;
10699;SDS011;5401;41.986;21.452;2023-02-01T04:11:19;2.83;;;2.13;;
10699;SDS011;5401;41.986;21.452;2023-02-01T04:13:46;2.43;;;2.13;;
10699;SDS011;5401;41.986;21.452;2023-02-01T04:16:14;2.97;;;1.90;;
10699;SDS011;5401;41.986;21.452;2023-02-01T04:18:41;2.00;;;1.80;;
10699;SDS011;5401;41.986;21.452;2023-02-01T04:21:09;2.73;;;1.80;;
10699;SDS011;5401;41.986;21.452;2023-02-01T04:23:36;2.67;;;1.63;;
10699;SDS011;5401;41.986;21.452;2023-02-01T04:26:05;3.00;;;2.10;;
10699;SDS011;5401;41.986;21.452;2023-02-01T04:28:33;1.67;;;1.40;;
10699;SDS011;5401;41.986;21.452;2023-02-01T04:31:00;2.80;;;1.77;;
10699;SDS011;5401;41.986;21.452;2023-02-01T04:33:27;1.90;;;1.43;;
10699;SDS011;5401;41.986;21.452;2023-02-01T04:35:55;2.73;;;1.40;;
10699;SDS011;5401;41.986;21.452;2023-02-01T04:38:23;4.53;;;2.00;;
10699;SDS011;5401;41.986;21.452;2023-02-01T04:40:50;2.27;;;1.80;;
10699;SDS011;5401;41.986;21.452;2023-02-01T04:43:19;4.27;;;2.67;;
10699;SDS011;5401;41.986;21.452;2023-02-01T04:45:47;4.63;;;2.50;;
10699;SDS011;5401;41.986;21.452;2023-02-01T04:48:15;5.47;;;3.10;;
10699;SDS011;5401;41.986;21.452;2023-02-01T04:50:44;7.37;;;4.27;;
10699;SDS011;5401;41.986;21.452;2023-02-01T04:53:13;5.70;;;3.40;;
10699;SDS011;5401;41.986;21.452;2023-02-01T04:55:41;6.13;;;3.73;;
10699;SDS011;5401;41.986;21.452;2023-02-01T04:58:09;6.43;;;3.70;;
10699;SDS011;5401;41.986;21.452;2023-02-01T05:00:39;9.07;;;4.50;;
10699;SDS011;5401;41.986;21.452;2023-02-01T05:03:06;6.33;;;4.20;;
10699;SDS011;5401;41.986;21.452;2023-02-01T05:05:34;6.50;;;4.50;;
10699;SDS011;5401;41.986;21.452;2023-02-01T05:08:01;9.27;;;4.57;;
10699;SDS011;5401;41.986;21.452;2023-02-01T05:10:29;8.53;;;4.33;;
10699;SDS011;5401;41.986;21.452;2023-02-01T05:12:57;7.80;;;4.63;;
10699;SDS011;5401;41.986;21.452;2023-02-01T05:15:43;10.53;;;4.37;;
10699;SDS011;5401;41.986;21.452;2023-02-01T05:18:11;11.33;;;4.77;;
10699;SDS011;5401;41.986;21.452;2023-02-01T05:20:39;7.20;;;3.97;;
10699;SDS011;5401;41.986;21.452;2023-02-01T05:23:06;11.87;;;4.20;;
10699;SDS011;5401;41.986;21.452;2023-02-01T05:25:34;12.27;;;4.20;;
10699;SDS011;5401;41.986;21.452;2023-02-01T05:28:01;5.73;;;3.83;;
10699;SDS011;5401;41.986;21.452;2023-02-01T05:30:29;6.80;;;3.77;;
10699;SDS011;5401;41.986;21.452;2023-02-01T05:32:59;8.83;;;4.67;;
10699;SDS011;5401;41.986;21.452;2023-02-01T05:35:27;6.33;;;4.00;;
10699;SDS011;5401;41.986;21.452;2023-02-01T05:37:54;8.30;;;4.70;;
10699;SDS011;5401;41.986;21.452;2023-02-01T05:40:22;9.10;;;4.90;;
10699;SDS011;5401;41.986;21.452;2023-02-01T05:42:49;12.87;;;5.73;;
10699;SDS011;5401;41.986;21.452;2023-02-01T05:45:17;10.43;;;5.10;;
10699;SDS011;5401;41.986;21.452;2023-02-01T05:47:44;9.70;;;4.83;;
10699;SDS011;5401;41.986;21.452;2023-02-01T05:52:42;10.90;;;4.57;;
10699;SDS011;5401;41.986;21.452;2023-02-01T05:55:09;6.93;;;4.00;;
10699;SDS011;5401;41.986;21.452;2023-02-01T05:57:37;11.50;;;4.63;;
10699;SDS011;5401;41.986;21.452;2023-02-01T06:00:05;11.77;;;4.60;;
10699;SDS011;5401;41.986;21.452;2023-02-01T06:02:33;8.50;;;4.73;;
10699;SDS011;5401;41.986;21.452;2023-02-01T06:05:05;8.87;;;5.10;;
10699;SDS011;5401;41.986;21.452;2023-02-01T06:07:34;11.70;;;4.50;;
10699;SDS011;5401;41.986;21.452;2023-02-01T06:10:02;10.87;;;5.23;;
10699;SDS011;5401;41.986;21.452;2023-02-01T06:12:30;19.93;;;6.07;;
10699;SDS011;5401;41.986;21.452;2023-02-01T06:14:57;11.33;;;5.37;;
10699;SDS011;5401;41.986;21.452;2023-02-01T06:17:25;11.73;;;5.63;;
10699;SDS011;5401;41.986;21.452;2023-02-01T06:19:52;9.90;;;5.90;;
10699;SDS011;5401;41.986;21.452;2023-02-01T06:22:20;10.93;;;5.43;;
10699;SDS011;5401;41.986;21.452;2023-02-01T06:24:49;13.70;;;6.93;;
10699;SDS011;5401;41.986;21.452;2023-02-01T06:27:17;13.20;;;6.97;;
10699;SDS011;5401;41.986;21.452;2023-02-01T06:29:44;16.23;;;6.77;;
10699;SDS011;5401;41.986;21.452;2023-02-01T06:32:13;12.03;;;5.93;;
10699;SDS011;5401;41.986;21.452;2023-02-01T06:34:40;14.07;;;6.60;;
10699;SDS011;5401;41.986;21.452;2023-02-01T06:37:08;11.17;;;6.43;;
10699;SDS011;5401;41.986;21.452;2023-02-01T06:39:36;12.13;;;6.40;;
10699;SDS011;5401;41.986;21.452;2023-02-01T06:42:05;10.67;;;6.63;;
10699;SDS011;5401;41.986;21.452;2023-02-01T06:44:33;17.60;;;7.27;;
10699;SDS011;5401;41.986;21.452;2023-02-01T06:47:00;15.03;;;7.17;;
10699;SDS011;5401;41.986;21.452;2023-02-01T06:49:29;19.33;;;7.47;;
10699;SDS011;5401;41.986;21.452;2023-02-01T06:51:57;20.47;;;10.77;;
10699;SDS011;5401;41.986;21.452;2023-02-01T06:54:25;30.27;;;13.10;;
10699;SDS011;5401;41.986;21.452;2023-02-01T06:56:54;26.77;;;13.63;;
10699;SDS011;5401;41.986;21.452;2023-02-01T06:59:23;28.70;;;12.90;;
10699;SDS011;5401;41.986;21.452;2023-02-01T07:01:50;22.33;;;12.60;;
10699;SDS011;5401;41.986;21.452;2023-02-01T07:04:17;30.40;;;12.40;;
10699;SDS011;5401;41.986;21.452;2023-02-01T07:06:45;25.53;;;11.23;;
10699;SDS011;5401;41.986;21.452;2023-02-01T07:09:12;20.37;;;11.67;;
10699;SDS011;5401;41.986;21.452;2023-02-01T07:11:41;23.17;;;11.53;;
10699;SDS011;5401;41.986;21.452;2023-02-01T07:14:09;30.27;;;12.33;;
10699;SDS011;5401;41.986;21.452;2023-02-01T07:16:38;28.00;;;12.40;;
10699;SDS011;5401;41.986;21.452;2023-02-01T07:19:06;28.27;;;12.60;;
10699;SDS011;5401;41.986;21.452;2023-02-01T07:21:33;22.97;;;11.53;;
10699;SDS011;5401;41.986;21.452;2023-02-01T07:24:01;18.93;;;9.57;;
10699;SDS011;5401;41.986;21.452;2023-02-01T07:26:28;16.77;;;8.80;;
10699;SDS011;5401;41.986;21.452;2023-02-01T07:28:56;14.53;;;7.80;;
10699;SDS011;5401;41.986;21.452;2023-02-01T07:31:23;14.90;;;8.57;;
10699;SDS011;5401;41.986;21.452;2023-02-01T07:33:53;11.27;;;6.70;;
10699;SDS011;5401;41.986;21.452;2023-02-01T07:36:22;14.63;;;7.03;;
10699;SDS011;5401;41.986;21.452;2023-02-01T07:38:49;12.87;;;7.33;;
10699;SDS011;5401;41.986;21.452;2023-02-01T07:41:17;14.97;;;7.53;;
10699;SDS011;5401;41.986;21.452;2023-02-01T07:43:46;12.30;;;6.33;;
10699;SDS011;5401;41.986;21.452;2023-02-01T07:46:13;13.27;;;6.70;;
10699;SDS011;5401;41.986;21.452;2023-02-01T07:48:42;10.40;;;6.60;;
10699;SDS011;5401;41.986;21.452;2023-02-01T07:51:11;10.13;;;5.77;;
10699;SDS011;5401;41.986;21.452;2023-02-01T07:53:40;15.67;;;4.93;;
10699;SDS011;5401;41.986;21.452;2023-02-01T07:56:10;9.30;;;6.33;;
10699;SDS011;5401;41.986;21.452;2023-02-01T07:58:39;7.87;;;4.87;;
10699;SDS011;5401;41.986;21.452;2023-02-01T08:01:11;9.80;;;4.17;;
10699;SDS011;5401;41.986;21.452;2023-02-01T08:03:47;8.53;;;4.10;;
10699;SDS011;5401;41.986;21.452;2023-02-01T08:06:17;12.83;;;4.70;;
10699;SDS011;5401;41.986;21.452;2023-02-01T08:08:45;11.67;;;4.60;;
10699;SDS011;5401;41.986;21.452;2023-02-01T08:11:13;17.33;;;4.80;;
10699;SDS011;5401;41.986;21.452;2023-02-01T08:13:41;15.63;;;6.70;;
10699;SDS011;5401;41.986;21.452;2023-02-01T08:16:09;16.27;;;7.33;;
10699;SDS011;5401;41.986;21.452;2023-02-01T08:18:38;25.67;;;10.93;;
10699;SDS011;5401;41.986;21.452;2023-02-01T08:21:07;26.23;;;14.87;;
10699;SDS011;5401;41.986;21.452;2023-02-01T08:23:37;28.53;;;15.63;;
10699;SDS011;5401;41.986;21.452;2023-02-01T08:26:07;32.40;;;17.10;;
10699;SDS011;5401;41.986;21.452;2023-02-01T08:28:36;29.70;;;17.37;;
10699;SDS011;5401;41.986;21.452;2023-02-01T08:31:04;32.40;;;21.23;;
10699;SDS011;5401;41.986;21.452;2023-02-01T08:33:33;41.70;;;22.97;;
10699;SDS011;5401;41.986;21.452;2023-02-01T08:36:01;23.53;;;13.83;;
10699;SDS011;5401;41.986;21.452;2023-02-01T08:38:32;22.70;;;13.80;;
10699;SDS011;5401;41.986;21.452;2023-02-01T08:41:27;26.97;;;14.40;;
10699;SDS011;5401;41.986;21.452;2023-02-01T08:43:56;20.60;;;11.73;;
10699;SDS011;5401;41.986;21.452;2023-02-01T08:46:24;22.13;;;10.27;;
10699;SDS011;5401;41.986;21.452;2023-02-01T08:48:52;22.37;;;11.67;;
10699;SDS011;5401;41.986;21.452;2023-02-01T08:51:20;20.80;;;11.57;;
10699;SDS011;5401;41.986;21.452;2023-02-01T08:53:51;22.60;;;8.57;;
10699;SDS011;5401;41.986;21.452;2023-02-01T08:56:18;17.23;;;9.10;;
10699;SDS011;5401;41.986;21.452;2023-02-01T08:58:46;20.10;;;7.83;;
10699;SDS011;5401;41.986;21.452;2023-02-01T09:01:14;11.93;;;5.97;;
10699;SDS011;5401;41.986;21.452;2023-02-01T09:03:43;20.23;;;8.30;;
10699;SDS011;5401;41.986;21.452;2023-02-01T09:06:12;32.73;;;11.37;;
10699;SDS011;5401;41.986;21.452;2023-02-01T09:08:40;18.10;;;8.57;;
10699;SDS011;5401;41.986;21.452;2023-02-01T09:11:11;23.00;;;9.20;;
10699;SDS011;5401;41.986;21.452;2023-02-01T09:13:40;18.87;;;8.93;;
10699;SDS011;5401;41.986;21.452;2023-02-01T09:16:08;26.40;;;11.03;;
10699;SDS011;5401;41.986;21.452;2023-02-01T09:18:36;30.13;;;10.57;;
10699;SDS011;5401;41.986;21.452;2023-02-01T09:21:04;23.50;;;11.97;;
10699;SDS011;5401;41.986;21.452;2023-02-01T09:23:32;24.97;;;12.00;;
10699;SDS011;5401;41.986;21.452;2023-02-01T09:26:00;25.30;;;11.17;;
10699;SDS011;5401;41.986;21.452;2023-02-01T09:28:30;23.53;;;11.40;;
10699;SDS011;5401;41.986;21.452;2023-02-01T09:30:58;24.00;;;11.77;;
10699;SDS011;5401;41.986;21.452;2023-02-01T09:33:27;23.80;;;11.23;;
10699;SDS011;5401;41.986;21.452;2023-02-01T09:35:55;18.90;;;9.50;;
10699;SDS011;5401;41.986;21.452;2023-02-01T09:38:23;34.00;;;10.63;;
10699;SDS011;5401;41.986;21.452;2023-02-01T09:40:53;22.93;;;10.00;;
10699;SDS011;5401;41.986;21.452;2023-02-01T09:43:25;17.70;;;10.07;;
10699;SDS011;5401;41.986;21.452;2023-02-01T09:46:10;25.77;;;11.87;;
10699;SDS011;5401;41.986;21.452;2023-02-01T09:48:48;24.97;;;12.03;;
10699;SDS011;5401;41.986;21.452;2023-02-01T09:51:29;22.40;;;10.77;;
10699;SDS011;5401;41.986;21.452;2023-02-01T09:54:01;29.37;;;11.87;;
10699;SDS011;5401;41.986;21.452;2023-02-01T09:56:34;32.40;;;12.17;;
10699;SDS011;5401;41.986;21.452;2023-02-01T09:59:10;25.53;;;11.13;;
10699;SDS011;5401;41.986;21.452;2023-02-01T10:02:00;26.20;;;12.40;;
10699;SDS011;5401;41.986;21.452;2023-02-01T10:04:30;31.90;;;11.73;;
10699;SDS011;5401;41.986;21.452;2023-02-01T10:09:50;32.93;;;10.87;;
10699;SDS011;5401;41.986;21.452;2023-02-01T10:12:32;20.53;;;9.90;;
10699;SDS011;5401;41.986;21.452;2023-02-01T10:15:37;26.53;;;10.23;;
10699;SDS011;5401;41.986;21.452;2023-02-01T10:18:22;15.07;;;8.77;;
10699;SDS011;5401;41.986;21.452;2023-02-01T10:21:01;17.07;;;10.00;;
10699;SDS011;5401;41.986;21.452;2023-02-01T10:23:46;18.53;;;9.60;;
10699;SDS011;5401;41.986;21.452;2023-02-01T10:26:30;22.80;;;11.33;;
10699;SDS011;5401;41.986;21.452;2023-02-01T10:29:03;19.00;;;10.63;;
10699;SDS011;5401;41.986;21.452;2023-02-01T10:31:39;20.40;;;11.23;;
10699;SDS011;5401;41.986;21.452;2023-02-01T10:34:10;22.43;;;12.50;;
10699;SDS011;5401;41.986;21.452;2023-02-01T10:36:49;25.33;;;13.03;;
10699;SDS011;5401;41.986;21.452;2023-02-01T10:39:20;18.80;;;10.70;;
10699;SDS011;5401;41.986;21.452;2023-02-01T10:41:48;25.70;;;12.57;;
10699;SDS011;5401;41.986;21.452;2023-02-01T10:44:16;25.00;;;12.10;;
10699;SDS011;5401;41.986;21.452;2023-02-01T10:46:50;36.30;;;13.67;;
10699;SDS011;5401;41.986;21.452;2023-02-01T10:49:18;36.10;;;13.33;;
10699;SDS011;5401;41.986;21.452;2023-02-01T10:51:52;32.30;;;12.30;;
10699;SDS011;5401;41.986;21.452;2023-02-01T10:54:32;34.70;;;12.53;;
10699;SDS011;5401;41.986;21.452;2023-02-01T10:57:01;29.83;;;13.37;;
10699;SDS011;5401;41.986;21.452;2023-02-01T10:59:29;20.57;;;12.30;;
10699;SDS011;5401;41.986;21.452;2023-02-01T11:02:01;22.07;;;11.13;;
10699;SDS011;5401;41.986;21.452;2023-02-01T11:04:39;21.43;;;12.13;;
10699;SDS011;5401;41.986;21.452;2023-02-01T11:07:13;28.07;;;11.67;;
10699;SDS011;5401;41.986;21.452;2023-02-01T11:09:48;28.77;;;12.87;;
10699;SDS011;5401;41.986;21.452;2023-02-01T11:12:22;23.27;;;13.13;;
10699;SDS011;5401;41.986;21.452;2023-02-01T11:14:57;30.07;;;13.77;;
10699;SDS011;5401;41.986;21.452;2023-02-01T11:17:32;26.30;;;12.70;;
10699;SDS011;5401;41.986;21.452;2023-02-01T11:20:01;20.97;;;12.10;;
10699;SDS011;5401;41.986;21.452;2023-02-01T11:22:31;21.00;;;11.43;;
10699;SDS011;5401;41.986;21.452;2023-02-01T11:24:59;19.40;;;11.43;;
10699;SDS011;5401;41.986;21.452;2023-02-01T11:27:28;19.67;;;11.60;;
10699;SDS011;5401;41.986;21.452;2023-02-01T11:29:57;21.43;;;9.93;;
10699;SDS011;5401;41.986;21.452;2023-02-01T11:32:27;21.73;;;10.63;;
10699;SDS011;5401;41.986;21.452;2023-02-01T11:34:59;18.90;;;9.87;;
10699;SDS011;5401;41.986;21.452;2023-02-01T11:37:31;13.90;;;8.70;;
10699;SDS011;5401;41.986;21.452;2023-02-01T11:40:03;18.03;;;8.30;;
10699;SDS011;5401;41.986;21.452;2023-02-01T11:42:53;16.23;;;7.73;;
10699;SDS011;5401;41.986;21.452;2023-02-01T11:45:24;15.23;;;7.57;;
10699;SDS011;5401;41.986;21.452;2023-02-01T11:47:55;12.97;;;7.17;;
10699;SDS011;5401;41.986;21.452;2023-02-01T11:50:26;18.43;;;6.90;;
10699;SDS011;5401;41.986;21.452;2023-02-01T11:53:09;22.93;;;8.20;;
10699;SDS011;5401;41.986;21.452;2023-02-01T11:56:03;10.77;;;6.13;;
10699;SDS011;5401;41.986;21.452;2023-02-01T11:58:42;12.77;;;7.30;;
10699;SDS011;5401;41.986;21.452;2023-02-01T12:01:32;14.63;;;8.23;;
10699;SDS011;5401;41.986;21.452;2023-02-01T12:07:27;12.47;;;8.43;;
10699;SDS011;5401;41.986;21.452;2023-02-01T12:10:05;15.33;;;8.60;;
10699;SDS011;5401;41.986;21.452;2023-02-01T12:12:46;11.43;;;8.20;;
10699;SDS011;5401;41.986;21.452;2023-02-01T12:15:25;12.27;;;7.27;;
10699;SDS011;5401;41.986;21.452;2023-02-01T12:18:10;10.43;;;7.03;;
10699;SDS011;5401;41.986;21.452;2023-02-01T12:21:05;13.17;;;7.10;;
10699;SDS011;5401;41.986;21.452;2023-02-01T12:23:50;13.50;;;7.20;;
10699;SDS011;5401;41.986;21.452;2023-02-01T12:26:40;18.67;;;8.27;;
10699;SDS011;5401;41.986;21.452;2023-02-01T12:29:25;15.30;;;7.17;;
10699;SDS011;5401;41.986;21.452;2023-02-01T12:32:21;9.83;;;6.30;;
10699;SDS011;5401;41.986;21.452;2023-02-01T12:35:12;9.70;;;6.10;;
10699;SDS011;5401;41.986;21.452;2023-02-01T12:37:57;8.73;;;6.00;;
10699;SDS011;5401;41.986;21.452;2023-02-01T12:40:43;11.10;;;5.93;;
10699;SDS011;5401;41.986;21.452;2023-02-01T12:43:22;11.67;;;6.07;;
10699;SDS011;5401;41.986;21.452;2023-02-01T12:46:00;7.07;;;5.13;;
10699;SDS011;5401;41.986;21.452;2023-02-01T12:48:33;10.63;;;6.17;;
10699;SDS011;5401;41.986;21.452;2023-02-01T12:51:04;10.23;;;6.83;;
10699;SDS011;5401;41.986;21.452;2023-02-01T12:53:41;12.93;;;7.33;;
10699;SDS011;5401;41.986;21.452;2023-02-01T12:56:15;9.37;;;6.40;;
10699;SDS011;5401;41.986;21.452;2023-02-01T12:58:49;19.47;;;6.20;;
10699;SDS011;5401;41.986;21.452;2023-02-01T13:01:20;11.90;;;6.27;;
10699;SDS011;5401;41.986;21.452;2023-02-01T13:03:53;10.80;;;6.00;;
10699;SDS011;5401;41.986;21.452;2023-02-01T13:06:27;9.43;;;5.80;;
10699;SDS011;5401;41.986;21.452;2023-02-01T13:09:00;9.10;;;5.50;;
10699;SDS011;5401;41.986;21.452;2023-02-01T13:11:34;6.60;;;5.17;;
10699;SDS011;5401;41.986;21.452;2023-02-01T13:14:07;10.13;;;5.40;;
10699;SDS011;5401;41.986;21.452;2023-02-01T13:16:42;7.77;;;5.00;;
10699;SDS011;5401;41.986;21.452;2023-02-01T13:19:12;8.63;;;5.07;;
10699;SDS011;5401;41.986;21.452;2023-02-01T13:21:45;11.63;;;5.43;;
10699;SDS011;5401;41.986;21.452;2023-02-01T13:24:26;5.47;;;4.07;;
10699;SDS011;5401;41.986;21.452;2023-02-01T13:27:01;10.20;;;6.13;;
10699;SDS011;5401;41.986;21.452;2023-02-01T13:29:29;11.17;;;6.00;;
10699;SDS011;5401;41.986;21.452;2023-02-01T13:32:08;6.23;;;5.00;;
10699;SDS011;5401;41.986;21.452;2023-02-01T13:34:57;8.73;;;5.40;;
10699;SDS011;5401;41.986;21.452;2023-02-01T13:37:55;8.93;;;5.57;;
10699;SDS011;5401;41.986;21.452;2023-02-01T13:40:36;10.47;;;5.50;;
10699;SDS011;5401;41.986;21.452;2023-02-01T13:43:10;8.53;;;5.10;;
10699;SDS011;5401;41.986;21.452;2023-02-01T13:45:45;12.67;;;5.50;;
10699;SDS011;5401;41.986;21.452;2023-02-01T13:48:18;8.03;;;5.33;;
10699;SDS011;5401;41.986;21.452;2023-02-01T13:50:52;8.00;;;4.73;;
10699;SDS011;5401;41.986;21.452;2023-02-01T13:53:23;5.67;;;5.07;;
10699;SDS011;5401;41.986;21.452;2023-02-01T13:55:56;6.60;;;4.77;;
10699;SDS011;5401;41.986;21.452;2023-02-01T13:58:32;6.80;;;4.57;;
10699;SDS011;5401;41.986;21.452;2023-02-01T14:07:19;8.03;;;4.53;;
10699;SDS011;5401;41.986;21.452;2023-02-01T14:09:48;13.20;;;5.60;;
10699;SDS011;5401;41.986;21.452;2023-02-01T14:15:23;14.73;;;5.23;;
10699;SDS011;5401;41.986;21.452;2023-02-01T14:17:53;9.40;;;5.10;;
10699;SDS011;5401;41.986;21.452;2023-02-01T14:23:20;6.80;;;4.53;;
10699;SDS011;5401;41.986;21.452;2023-02-01T14:28:42;8.00;;;4.50;;
10699;SDS011;5401;41.986;21.452;2023-02-01T14:31:15;6.87;;;4.63;;
10699;SDS011;5401;41.986;21.452;2023-02-01T14:33:54;11.70;;;5.40;;
10699;SDS011;5401;41.986;21.452;2023-02-01T14:36:24;8.53;;;5.13;;
10699;SDS011;5401;41.986;21.452;2023-02-01T14:38:53;10.17;;;5.47;;
10699;SDS011;5401;41.986;21.452;2023-02-01T14:41:25;6.87;;;4.70;;
10699;SDS011;5401;41.986;21.452;2023-02-01T14:44:22;7.73;;;4.60;;
10699;SDS011;5401;41.986;21.452;2023-02-01T14:47:10;8.60;;;5.00;;
10699;SDS011;5401;41.986;21.452;2023-02-01T14:49:55;7.40;;;5.37;;
10699;SDS011;5401;41.986;21.452;2023-02-01T14:52:29;7.10;;;5.07;;
10699;SDS011;5401;41.986;21.452;2023-02-01T14:55:02;9.03;;;5.23;;
10699;SDS011;5401;41.986;21.452;2023-02-01T14:57:34;8.37;;;5.70;;
10699;SDS011;5401;41.986;21.452;2023-02-01T15:00:07;7.83;;;5.63;;
10699;SDS011;5401;41.986;21.452;2023-02-01T15:02:46;9.47;;;6.50;;
10699;SDS011;5401;41.986;21.452;2023-02-01T15:05:22;9.47;;;6.33;;
10699;SDS011;5401;41.986;21.452;2023-02-01T15:07:51;56.83;;;39.27;;
10699;SDS011;5401;41.986;21.452;2023-02-01T15:10:20;149.67;;;98.03;;
10699;SDS011;5401;41.986;21.452;2023-02-01T15:12:49;24.47;;;14.37;;
10699;SDS011;5401;41.986;21.452;2023-02-01T15:15:17;15.77;;;8.27;;
10699;SDS011;5401;41.986;21.452;2023-02-01T15:17:54;11.67;;;7.33;;
10699;SDS011;5401;41.986;21.452;2023-02-01T15:20:23;13.70;;;8.93;;
10699;SDS011;5401;41.986;21.452;2023-02-01T15:22:52;13.13;;;8.13;;
10699;SDS011;5401;41.986;21.452;2023-02-01T15:25:22;11.83;;;8.40;;
10699;SDS011;5401;41.986;21.452;2023-02-01T15:27:51;15.77;;;9.33;;
10699;SDS011;5401;41.986;21.452;2023-02-01T15:30:19;15.77;;;9.17;;
10699;SDS011;5401;41.986;21.452;2023-02-01T15:32:49;12.67;;;8.13;;
10699;SDS011;5401;41.986;21.452;2023-02-01T15:35:34;18.20;;;8.97;;
10699;SDS011;5401;41.986;21.452;2023-02-01T15:38:20;15.17;;;9.03;;
10699;SDS011;5401;41.986;21.452;2023-02-01T15:40:56;20.33;;;10.03;;
10699;SDS011;5401;41.986;21.452;2023-02-01T15:43:26;17.33;;;11.33;;